Tucson, AZ (85711)

10:20 AM MST on July 28, 2016 (GMT -0700)
Presidio at Williams Center | | Change Station

Elev 2572 ft 32.22 °N, 110.88 °W | Updated 32 seconds ago

Overcast
Overcast
97.3 °F
Feels Like 96 °F
N
0.0
Wind Variable Wind from ESE
Gusts 0.0 mph

Today
High -- | Low -- °F
--% Chance of Precip.
Yesterday
High -- | Low -- °F
Precip. -- in
Pressure 29.87 in
Visibility 10.0 miles
Clouds Few 20000 ft
Heat Index 96 °F
Dew Point 57 °F
Humidity 26%
Rainfall 0.20 in
Snow Depth Not available.
5:36 AM 7:23 PM
Waning Crescent, 30% visible
METAR KDMA 281658Z AUTO 12004KT 10SM -RA FEW200 33/18 A3000 RMK AO2 RAB10E27DZB27E33RAB33E34RAB38 SLP113 P0000 T03260178 $
Pressure 29.87 in
Visibility 10.0 miles
Clouds Few 20000 ft
Heat Index 96 °F
Dew Point 57 °F
Humidity 26%
Rainfall 0.20 in
Snow Depth Not available.
5:36 AM 7:23 PM
Waning Crescent, 30% visible
METAR KDMA 281658Z AUTO 12004KT 10SM -RA FEW200 33/18 A3000 RMK AO2 RAB10E27DZB27E33RAB33E34RAB38 SLP113 P0000 T03260178 $

10-Day Weather Forecast

Almanac

Astronomy

Jul. 28, 2016 Rise Set
Actual Time
Civil Twilight
Nautical Twilight
Astronomical Twilight
Moon
Length of Visible Light
Length of Day
Tomorrow will be .
, % of the Moon is Illuminated

Today's Extremes

State Highs State Lows

Community

WunderPhotos

Upload Photos

1,928,163 photos uploaded!

WunderBlog® & News

Nearby

Air Quality

  Air Quality AQ Index Pollutant
Not available.

Snow Depth

Station Depth Elevation

Earthquake Activity

City Distance Mag. Time & Date
Minimum magnitude displayed is 2.5.

Coastal Water Temperatures

Place Temperature

Stations

Nearby Weather Stations

Station Location Temp. Windchill Dew Point Humidity Wind Precip. Elev Updated Type
                   

Watches & Warnings

There are currently no watches in effect.